sensor_id;sensor_type;location;lat;lon;timestamp;pressure;altitude;pressure_sealevel;temperature;humidity
36726;BME280;44936;52.086;5.150;2023-06-14T00:00:38;101980.41;;;18.71;100.00
36726;BME280;44936;52.086;5.150;2023-06-14T00:03:08;101960.09;;;18.66;100.00
36726;BME280;44936;52.086;5.150;2023-06-14T00:05:35;101976.94;;;18.62;100.00
36726;BME280;44936;52.086;5.150;2023-06-14T00:08:06;102015.03;;;18.66;100.00
36726;BME280;44936;52.086;5.150;2023-06-14T00:10:36;101995.59;;;18.58;100.00
36726;BME280;44936;52.086;5.150;2023-06-14T00:13:05;101976.16;;;18.56;100.00
36726;BME280;44936;52.086;5.150;2023-06-14T00:15:33;102003.63;;;18.52;100.00
36726;BME280;44936;52.086;5.150;2023-06-14T00:17:59;101999.34;;;18.42;100.00
36726;BME280;44936;52.086;5.150;2023-06-14T00:20:31;101993.06;;;18.46;100.00
36726;BME280;44936;52.086;5.150;2023-06-14T00:23:00;101960.41;;;18.36;100.00
36726;BME280;44936;52.086;5.150;2023-06-14T00:25:26;101964.84;;;18.38;100.00
36726;BME280;44936;52.086;5.150;2023-06-14T00:27:52;101995.84;;;18.36;100.00
36726;BME280;44936;52.086;5.150;2023-06-14T00:30:18;101979.13;;;18.25;100.00
36726;BME280;44936;52.086;5.150;2023-06-14T00:32:44;102007.44;;;18.29;100.00
36726;BME280;44936;52.086;5.150;2023-06-14T00:35:10;101979.19;;;18.22;100.00
36726;BME280;44936;52.086;5.150;2023-06-14T00:37:36;101981.84;;;18.22;100.00
36726;BME280;44936;52.086;5.150;2023-06-14T00:40:02;101991.59;;;18.20;100.00
36726;BME280;44936;52.086;5.150;2023-06-14T00:42:29;101987.16;;;18.19;100.00
36726;BME280;44936;52.086;5.150;2023-06-14T00:44:55;102009.31;;;18.18;100.00
36726;BME280;44936;52.086;5.150;2023-06-14T00:47:21;102033.28;;;18.12;100.00
36726;BME280;44936;52.086;5.150;2023-06-14T00:49:47;102013.00;;;18.05;100.00
36726;BME280;44936;52.086;5.150;2023-06-14T00:52:14;101967.84;;;18.05;100.00
36726;BME280;44936;52.086;5.150;2023-06-14T00:54:43;102010.28;;;18.08;100.00
36726;BME280;44936;52.086;5.150;2023-06-14T00:57:09;102011.25;;;18.02;100.00
36726;BME280;44936;52.086;5.150;2023-06-14T00:59:40;101986.56;;;17.91;100.00
36726;BME280;44936;52.086;5.150;2023-06-14T01:02:07;102025.44;;;17.98;100.00
36726;BME280;44936;52.086;5.150;2023-06-14T01:04:32;101994.50;;;17.96;100.00
36726;BME280;44936;52.086;5.150;2023-06-14T01:07:09;102014.84;;;17.92;100.00
36726;BME280;44936;52.086;5.150;2023-06-14T01:12:31;102026.50;;;17.77;100.00
36726;BME280;44936;52.086;5.150;2023-06-14T01:15:00;102038.88;;;17.75;100.00
36726;BME280;44936;52.086;5.150;2023-06-14T01:17:26;102038.03;;;17.72;100.00
36726;BME280;44936;52.086;5.150;2023-06-14T01:19:52;102013.28;;;17.64;100.00
36726;BME280;44936;52.086;5.150;2023-06-14T01:22:24;102037.22;;;17.59;100.00
36726;BME280;44936;52.086;5.150;2023-06-14T01:24:51;102041.59;;;17.63;100.00
36726;BME280;44936;52.086;5.150;2023-06-14T01:27:22;102019.53;;;17.55;100.00
36726;BME280;44936;52.086;5.150;2023-06-14T01:29:50;101987.91;;;17.27;100.00
36726;BME280;44936;52.086;5.150;2023-06-14T01:32:18;102005.56;;;17.32;100.00
36726;BME280;44936;52.086;5.150;2023-06-14T01:34:44;102038.19;;;17.46;100.00
36726;BME280;44936;52.086;5.150;2023-06-14T01:37:11;102027.63;;;17.41;100.00
36726;BME280;44936;52.086;5.150;2023-06-14T01:39:37;102017.88;;;17.42;100.00
36726;BME280;44936;52.086;5.150;2023-06-14T01:42:03;101979.84;;;17.40;100.00
36726;BME280;44936;52.086;5.150;2023-06-14T01:44:30;102047.91;;;17.45;100.00
36726;BME280;44936;52.086;5.150;2023-06-14T01:46:56;102022.31;;;17.41;100.00
36726;BME280;44936;52.086;5.150;2023-06-14T01:49:22;102016.13;;;17.41;100.00
36726;BME280;44936;52.086;5.150;2023-06-14T01:51:48;102019.63;;;17.44;100.00
36726;BME280;44936;52.086;5.150;2023-06-14T01:54:13;102022.28;;;17.44;100.00
36726;BME280;44936;52.086;5.150;2023-06-14T01:56:39;101941.22;;;17.07;100.00
36726;BME280;44936;52.086;5.150;2023-06-14T01:59:05;101988.84;;;17.19;100.00
36726;BME280;44936;52.086;5.150;2023-06-14T02:01:30;102034.69;;;17.38;100.00
36726;BME280;44936;52.086;5.150;2023-06-14T02:03:55;102007.34;;;17.30;100.00
36726;BME280;44936;52.086;5.150;2023-06-14T02:06:21;102008.28;;;17.24;100.00
36726;BME280;44936;52.086;5.150;2023-06-14T02:08:46;102017.94;;;17.31;100.00
36726;BME280;44936;52.086;5.150;2023-06-14T02:11:11;102025.00;;;17.29;100.00
36726;BME280;44936;52.086;5.150;2023-06-14T02:13:37;102040.09;;;17.24;100.00
36726;BME280;44936;52.086;5.150;2023-06-14T02:16:02;102001.22;;;17.14;100.00
36726;BME280;44936;52.086;5.150;2023-06-14T02:18:27;101992.38;;;17.19;100.00
36726;BME280;44936;52.086;5.150;2023-06-14T02:20:53;102032.13;;;17.22;100.00
36726;BME280;44936;52.086;5.150;2023-06-14T02:23:18;102040.09;;;17.19;100.00
36726;BME280;44936;52.086;5.150;2023-06-14T02:25:44;101988.97;;;16.96;100.00
36726;BME280;44936;52.086;5.150;2023-06-14T02:28:11;102001.28;;;17.08;100.00
36726;BME280;44936;52.086;5.150;2023-06-14T02:30:36;102022.44;;;17.12;100.00
36726;BME280;44936;52.086;5.150;2023-06-14T02:33:02;102017.19;;;17.08;100.00
36726;BME280;44936;52.086;5.150;2023-06-14T02:35:29;102048.13;;;17.07;100.00
36726;BME280;44936;52.086;5.150;2023-06-14T02:37:54;102008.38;;;17.03;100.00
36726;BME280;44936;52.086;5.150;2023-06-14T02:40:20;102036.63;;;17.04;100.00
36726;BME280;44936;52.086;5.150;2023-06-14T02:42:45;102025.22;;;16.97;100.00
36726;BME280;44936;52.086;5.150;2023-06-14T02:45:11;102035.81;;;16.91;100.00
36726;BME280;44936;52.086;5.150;2023-06-14T02:47:36;102051.72;;;16.91;100.00
36726;BME280;44936;52.086;5.150;2023-06-14T02:50:02;102062.31;;;16.92;100.00
36726;BME280;44936;52.086;5.150;2023-06-14T02:52:27;102054.38;;;16.86;100.00
36726;BME280;44936;52.086;5.150;2023-06-14T02:54:53;102075.59;;;16.85;100.00
36726;BME280;44936;52.086;5.150;2023-06-14T02:57:19;102066.78;;;16.80;100.00
36726;BME280;44936;52.086;5.150;2023-06-14T02:59:44;102066.81;;;16.72;100.00
36726;BME280;44936;52.086;5.150;2023-06-14T03:02:10;102082.69;;;16.74;100.00
36726;BME280;44936;52.086;5.150;2023-06-14T03:04:38;102069.47;;;16.70;100.00
36726;BME280;44936;52.086;5.150;2023-06-14T03:07:05;102038.53;;;16.59;100.00
36726;BME280;44936;52.086;5.150;2023-06-14T03:09:38;102086.19;;;16.66;100.00
36726;BME280;44936;52.086;5.150;2023-06-14T03:12:04;102072.97;;;16.63;100.00
36726;BME280;44936;52.086;5.150;2023-06-14T03:14:32;102061.50;;;16.51;100.00
36726;BME280;44936;52.086;5.150;2023-06-14T03:16:58;102073.88;;;16.61;100.00
36726;BME280;44936;52.086;5.150;2023-06-14T03:19:24;102063.25;;;16.58;100.00
36726;BME280;44936;52.086;5.150;2023-06-14T03:21:51;102072.13;;;16.54;100.00
36726;BME280;44936;52.086;5.150;2023-06-14T03:24:16;102083.59;;;16.48;100.00
36726;BME280;44936;52.086;5.150;2023-06-14T03:26:42;102089.78;;;16.55;100.00
36726;BME280;44936;52.086;5.150;2023-06-14T03:29:08;102090.66;;;16.52;100.00
36726;BME280;44936;52.086;5.150;2023-06-14T03:31:34;102095.97;;;16.52;100.00
36726;BME280;44936;52.086;5.150;2023-06-14T03:34:00;102110.97;;;16.47;100.00
36726;BME280;44936;52.086;5.150;2023-06-14T03:36:25;102100.38;;;16.41;100.00
36726;BME280;44936;52.086;5.150;2023-06-14T03:38:51;102115.38;;;16.39;100.00
36726;BME280;44936;52.086;5.150;2023-06-14T03:41:16;102134.78;;;16.32;100.00
36726;BME280;44936;52.086;5.150;2023-06-14T03:43:42;102135.66;;;16.34;100.00
36726;BME280;44936;52.086;5.150;2023-06-14T03:46:07;102131.28;;;16.28;100.00
36726;BME280;44936;52.086;5.150;2023-06-14T03:48:32;102132.16;;;16.29;100.00
36726;BME280;44936;52.086;5.150;2023-06-14T03:50:58;102142.75;;;16.26;100.00
36726;BME280;44936;52.086;5.150;2023-06-14T03:53:23;102136.56;;;16.22;100.00
36726;BME280;44936;52.086;5.150;2023-06-14T03:55:49;102138.34;;;16.19;100.00
36726;BME280;44936;52.086;5.150;2023-06-14T03:58:15;102132.16;;;16.20;100.00
36726;BME280;44936;52.086;5.150;2023-06-14T04:00:41;102148.94;;;16.19;100.00
36726;BME280;44936;52.086;5.150;2023-06-14T04:03:06;102133.03;;;16.15;100.00
36726;BME280;44936;52.086;5.150;2023-06-14T04:05:32;102136.56;;;16.13;100.00
36726;BME280;44936;52.086;5.150;2023-06-14T04:07:57;102144.53;;;16.18;100.00
36726;BME280;44936;52.086;5.150;2023-06-14T04:10:24;102117.16;;;16.03;100.00
36726;BME280;44936;52.086;5.150;2023-06-14T04:12:49;102112.72;;;16.14;100.00
36726;BME280;44936;52.086;5.150;2023-06-14T04:15:16;102153.34;;;16.18;100.00
36726;BME280;44936;52.086;5.150;2023-06-14T04:17:41;102134.81;;;16.09;100.00
36726;BME280;44936;52.086;5.150;2023-06-14T04:20:07;102121.56;;;16.13;100.00
36726;BME280;44936;52.086;5.150;2023-06-14T04:22:34;102149.78;;;16.16;100.00
36726;BME280;44936;52.086;5.150;2023-06-14T04:25:00;102157.75;;;16.18;100.00
36726;BME280;44936;52.086;5.150;2023-06-14T04:27:28;102153.34;;;16.18;100.00
36726;BME280;44936;52.086;5.150;2023-06-14T04:29:56;102136.56;;;16.14;100.00
36726;BME280;44936;52.086;5.150;2023-06-14T04:32:27;102148.91;;;16.22;100.00
36726;BME280;44936;52.086;5.150;2023-06-14T04:34:55;102144.50;;;16.08;100.00
36726;BME280;44936;52.086;5.150;2023-06-14T04:37:21;102141.00;;;16.17;100.00
36726;BME280;44936;52.086;5.150;2023-06-14T04:39:50;102170.09;;;16.20;100.00
36726;BME280;44936;52.086;5.150;2023-06-14T04:42:17;102185.09;;;16.24;100.00
36726;BME280;44936;52.086;5.150;2023-06-14T04:44:45;102147.16;;;16.24;100.00
36726;BME280;44936;52.086;5.150;2023-06-14T04:47:12;102156.00;;;16.26;100.00
36726;BME280;44936;52.086;5.150;2023-06-14T04:49:38;102140.09;;;16.23;100.00
36726;BME280;44936;52.086;5.150;2023-06-14T04:52:05;102163.03;;;16.24;100.00
36726;BME280;44936;52.086;5.150;2023-06-14T04:54:31;102151.59;;;16.26;100.00
36726;BME280;44936;52.086;5.150;2023-06-14T04:57:00;102166.59;;;16.26;100.00
36726;BME280;44936;52.086;5.150;2023-06-14T04:59:25;102171.88;;;16.36;100.00
36726;BME280;44936;52.086;5.150;2023-06-14T05:01:51;102185.09;;;16.39;100.00
36726;BME280;44936;52.086;5.150;2023-06-14T05:04:18;102158.63;;;16.38;100.00
36726;BME280;44936;52.086;5.150;2023-06-14T05:06:44;102192.19;;;16.45;100.00
36726;BME280;44936;52.086;5.150;2023-06-14T05:09:14;102156.00;;;16.44;100.00
36726;BME280;44936;52.086;5.150;2023-06-14T05:11:40;102175.38;;;16.51;100.00
36726;BME280;44936;52.086;5.150;2023-06-14T05:14:07;102168.31;;;16.51;100.00
36726;BME280;44936;52.086;5.150;2023-06-14T05:16:32;102196.59;;;16.54;100.00
36726;BME280;44936;52.086;5.150;2023-06-14T05:18:58;102178.91;;;16.51;100.00
36726;BME280;44936;52.086;5.150;2023-06-14T05:21:23;102169.22;;;16.58;100.00
36726;BME280;44936;52.086;5.150;2023-06-14T05:23:49;102174.50;;;16.64;100.00
36726;BME280;44936;52.086;5.150;2023-06-14T05:26:16;102161.28;;;16.68;100.00
36726;BME280;44936;52.086;5.150;2023-06-14T05:28:41;102191.31;;;16.74;100.00
36726;BME280;44936;52.086;5.150;2023-06-14T05:31:06;102172.72;;;16.67;100.00
36726;BME280;44936;52.086;5.150;2023-06-14T05:33:32;102180.72;;;16.80;100.00
36726;BME280;44936;52.086;5.150;2023-06-14T05:35:57;102170.09;;;16.83;100.00
36726;BME280;44936;52.086;5.150;2023-06-14T05:38:22;102155.97;;;16.84;100.00
36726;BME280;44936;52.086;5.150;2023-06-14T05:40:48;102197.47;;;16.92;100.00
36726;BME280;44936;52.086;5.150;2023-06-14T05:43:13;102153.31;;;16.91;100.00
36726;BME280;44936;52.086;5.150;2023-06-14T05:45:38;102179.78;;;16.96;100.00
36726;BME280;44936;52.086;5.150;2023-06-14T05:48:04;102178.91;;;16.94;100.00
36726;BME280;44936;52.086;5.150;2023-06-14T05:50:30;102172.72;;;17.03;100.00
36726;BME280;44936;52.086;5.150;2023-06-14T05:52:57;102145.31;;;17.08;100.00
36726;BME280;44936;52.086;5.150;2023-06-14T05:55:22;102127.63;;;17.10;100.00
36726;BME280;44936;52.086;5.150;2023-06-14T05:57:48;102154.13;;;17.16;100.00
36726;BME280;44936;52.086;5.150;2023-06-14T06:00:17;102128.50;;;17.17;100.00
36726;BME280;44936;52.086;5.150;2023-06-14T06:02:44;102116.97;;;17.22;100.00
36726;BME280;44936;52.086;5.150;2023-06-14T06:05:13;102125.75;;;17.31;100.00
36726;BME280;44936;52.086;5.150;2023-06-14T06:07:39;102126.59;;;17.40;100.00
36726;BME280;44936;52.086;5.150;2023-06-14T06:10:05;102116.00;;;17.45;100.00
36726;BME280;44936;52.086;5.150;2023-06-14T06:12:31;102051.56;;;17.24;100.00
36726;BME280;44936;52.086;5.150;2023-06-14T06:14:57;102107.97;;;17.55;100.00
36726;BME280;44936;52.086;5.150;2023-06-14T06:17:23;102088.53;;;17.58;100.00
36726;BME280;44936;52.086;5.150;2023-06-14T06:19:48;102112.31;;;17.69;100.00
36726;BME280;44936;52.086;5.150;2023-06-14T06:22:14;102125.59;;;17.67;100.00
36726;BME280;44936;52.086;5.150;2023-06-14T06:24:39;102089.31;;;17.69;100.00
36726;BME280;44936;52.086;5.150;2023-06-14T06:27:05;102091.06;;;17.79;100.00
36726;BME280;44936;52.086;5.150;2023-06-14T06:29:32;102089.25;;;17.83;100.00
36726;BME280;44936;52.086;5.150;2023-06-14T06:31:58;102104.22;;;17.92;100.00
36726;BME280;44936;52.086;5.150;2023-06-14T06:34:23;102130.75;;;17.93;100.00
36726;BME280;44936;52.086;5.150;2023-06-14T06:36:48;102100.63;;;18.00;100.00
36726;BME280;44936;52.086;5.150;2023-06-14T06:39:14;102120.03;;;18.08;100.00
36726;BME280;44936;52.086;5.150;2023-06-14T06:41:40;102073.16;;;18.06;100.00
36726;BME280;44936;52.086;5.150;2023-06-14T06:44:06;102112.03;;;18.13;100.00
36726;BME280;44936;52.086;5.150;2023-06-14T06:46:32;102130.56;;;18.22;100.00
36726;BME280;44936;52.086;5.150;2023-06-14T06:48:58;102114.59;;;18.24;100.00
36726;BME280;44936;52.086;5.150;2023-06-14T06:51:23;102119.88;;;18.27;100.00
36726;BME280;44936;52.086;5.150;2023-06-14T06:53:55;102097.72;;;18.32;100.00
36726;BME280;44936;52.086;5.150;2023-06-14T06:56:21;102127.75;;;18.40;100.00
36726;BME280;44936;52.086;5.150;2023-06-14T06:58:49;102138.31;;;18.45;100.00
36726;BME280;44936;52.086;5.150;2023-06-14T07:01:14;102078.22;;;18.32;100.00
36726;BME280;44936;52.086;5.150;2023-06-14T07:03:40;102128.47;;;18.55;100.00
36726;BME280;44936;52.086;5.150;2023-06-14T07:06:05;102149.69;;;18.59;100.00
36726;BME280;44936;52.086;5.150;2023-06-14T07:08:31;102138.13;;;18.63;100.00
36726;BME280;44936;52.086;5.150;2023-06-14T07:10:56;102124.00;;;18.66;100.00
36726;BME280;44936;52.086;5.150;2023-06-14T07:13:21;102128.34;;;18.75;100.00
36726;BME280;44936;52.086;5.150;2023-06-14T07:15:47;102090.19;;;18.79;100.00
36726;BME280;44936;52.086;5.150;2023-06-14T07:18:12;102106.94;;;18.85;100.00
36726;BME280;44936;52.086;5.150;2023-06-14T07:20:38;102099.81;;;18.87;100.00
36726;BME280;44936;52.086;5.150;2023-06-14T07:23:03;102102.41;;;18.95;100.00
36726;BME280;44936;52.086;5.150;2023-06-14T07:25:30;102112.09;;;18.99;100.00
36726;BME280;44936;52.086;5.150;2023-06-14T07:27:56;102096.03;;;19.07;100.00
36726;BME280;44936;52.086;5.150;2023-06-14T07:30:21;102119.06;;;19.11;100.00
36726;BME280;44936;52.086;5.150;2023-06-14T07:32:51;102116.31;;;19.18;100.00
36726;BME280;44936;52.086;5.150;2023-06-14T07:35:16;102106.44;;;19.25;100.00
36726;BME280;44936;52.086;5.150;2023-06-14T07:37:42;102070.06;;;19.29;100.00
36726;BME280;44936;52.086;5.150;2023-06-14T07:40:08;102123.97;;;19.41;100.00
36726;BME280;44936;52.086;5.150;2023-06-14T07:42:34;102091.16;;;19.42;100.00
36726;BME280;44936;52.086;5.150;2023-06-14T07:45:00;102083.09;;;19.48;100.00
36726;BME280;44936;52.086;5.150;2023-06-14T07:47:25;102085.66;;;19.58;100.00
36726;BME280;44936;52.086;5.150;2023-06-14T07:49:51;102075.78;;;19.66;100.00
36726;BME280;44936;52.086;5.150;2023-06-14T07:52:16;102094.34;;;19.70;100.00
36726;BME280;44936;52.086;5.150;2023-06-14T07:54:42;102081.78;;;19.80;100.00
36726;BME280;44936;52.086;5.150;2023-06-14T07:57:08;102052.38;;;19.86;100.00
36726;BME280;44936;52.086;5.150;2023-06-14T07:59:33;102065.59;;;19.92;100.00
36726;BME280;44936;52.086;5.150;2023-06-14T08:01:59;102093.91;;;19.96;100.00
36726;BME280;44936;52.086;5.150;2023-06-14T08:04:24;102093.78;;;20.07;100.00
36726;BME280;44936;52.086;5.150;2023-06-14T08:06:50;102106.97;;;20.13;100.00
36726;BME280;44936;52.086;5.150;2023-06-14T08:09:15;102084.81;;;20.11;100.00
36726;BME280;44936;52.086;5.150;2023-06-14T08:11:41;102062.41;;;20.23;100.00
36726;BME280;44936;52.086;5.150;2023-06-14T08:14:06;102033.06;;;20.26;100.00
36726;BME280;44936;52.086;5.150;2023-06-14T08:16:32;102017.09;;;20.23;100.00
36726;BME280;44936;52.086;5.150;2023-06-14T08:18:57;102023.00;;;20.40;100.00
36726;BME280;44936;52.086;5.150;2023-06-14T08:21:22;102015.69;;;20.53;100.00
36726;BME280;44936;52.086;5.150;2023-06-14T08:23:48;102046.69;;;20.58;100.00
36726;BME280;44936;52.086;5.150;2023-06-14T08:26:14;102008.31;;;20.65;100.00
36726;BME280;44936;52.086;5.150;2023-06-14T08:28:39;101994.84;;;20.73;100.00
36726;BME280;44936;52.086;5.150;2023-06-14T08:31:05;102023.06;;;20.85;100.00
36726;BME280;44936;52.086;5.150;2023-06-14T08:33:30;102008.63;;;20.95;100.00
36726;BME280;44936;52.086;5.150;2023-06-14T08:36:00;101994.03;;;21.10;100.00
36726;BME280;44936;52.086;5.150;2023-06-14T08:38:25;101967.88;;;21.27;100.00
36726;BME280;44936;52.086;5.150;2023-06-14T08:40:52;101974.66;;;21.42;100.00
36726;BME280;44936;52.086;5.150;2023-06-14T08:43:21;101956.75;;;21.45;100.00
36726;BME280;44936;52.086;5.150;2023-06-14T08:45:48;101932.94;;;21.73;100.00
36726;BME280;44936;52.086;5.150;2023-06-14T08:48:18;101959.16;;;21.92;100.00
36726;BME280;44936;52.086;5.150;2023-06-14T08:50:46;101974.81;;;22.07;100.00
36726;BME280;44936;52.086;5.150;2023-06-14T08:53:14;101988.69;;;22.21;100.00
36726;BME280;44936;52.086;5.150;2023-06-14T08:55:45;101942.16;;;22.28;100.00
36726;BME280;44936;52.086;5.150;2023-06-14T08:58:13;101919.81;;;22.31;100.00
36726;BME280;44936;52.086;5.150;2023-06-14T09:00:39;101920.09;;;22.51;100.00
36726;BME280;44936;52.086;5.150;2023-06-14T09:03:06;101925.16;;;22.62;100.00
36726;BME280;44936;52.086;5.150;2023-06-14T09:05:39;101914.44;;;22.62;100.00
36726;BME280;44936;52.086;5.150;2023-06-14T09:08:04;101901.38;;;22.81;100.00
36726;BME280;44936;52.086;5.150;2023-06-14T09:10:31;101939.50;;;22.89;100.00
36726;BME280;44936;52.086;5.150;2023-06-14T09:13:00;101908.94;;;22.98;100.00
36726;BME280;44936;52.086;5.150;2023-06-14T09:15:25;101905.94;;;23.07;100.00
36726;BME280;44936;52.086;5.150;2023-06-14T09:17:51;101873.84;;;23.07;100.00
36726;BME280;44936;52.086;5.150;2023-06-14T09:20:16;101879.03;;;23.11;100.00
36726;BME280;44936;52.086;5.150;2023-06-14T09:22:43;101913.28;;;23.28;100.00
36726;BME280;44936;52.086;5.150;2023-06-14T09:25:09;101923.69;;;23.37;100.00
36726;BME280;44936;52.086;5.150;2023-06-14T09:27:34;101906.44;;;23.46;100.00
36726;BME280;44936;52.086;5.150;2023-06-14T09:30:03;101934.19;;;23.43;100.00
36726;BME280;44936;52.086;5.150;2023-06-14T09:32:30;101900.66;;;23.60;100.00
36726;BME280;44936;52.086;5.150;2023-06-14T09:34:56;101871.06;;;23.63;100.00
36726;BME280;44936;52.086;5.150;2023-06-14T09:37:28;101897.53;;;23.72;100.00
36726;BME280;44936;52.086;5.150;2023-06-14T09:39:54;101929.25;;;23.84;100.00
36726;BME280;44936;52.086;5.150;2023-06-14T09:42:20;101925.38;;;23.93;100.00
36726;BME280;44936;52.086;5.150;2023-06-14T09:44:49;101903.91;;;23.94;100.00
36726;BME280;44936;52.086;5.150;2023-06-14T09:47:15;101925.81;;;24.06;100.00
36726;BME280;44936;52.086;5.150;2023-06-14T09:49:41;101885.00;;;23.97;100.00
36726;BME280;44936;52.086;5.150;2023-06-14T09:52:10;101900.41;;;24.16;100.00
36726;BME280;44936;52.086;5.150;2023-06-14T09:54:41;101880.50;;;24.23;100.00
36726;BME280;44936;52.086;5.150;2023-06-14T09:57:12;101826.19;;;24.18;100.00
36726;BME280;44936;52.086;5.150;2023-06-14T09:59:43;101859.06;;;24.23;100.00
36726;BME280;44936;52.086;5.150;2023-06-14T10:02:14;101872.09;;;24.34;100.00
36726;BME280;44936;52.086;5.150;2023-06-14T10:04:46;101873.75;;;24.36;100.00
36726;BME280;44936;52.086;5.150;2023-06-14T10:07:19;101835.19;;;24.40;100.00
36726;BME280;44936;52.086;5.150;2023-06-14T10:09:46;101876.09;;;24.45;100.00
36726;BME280;44936;52.086;5.150;2023-06-14T10:12:17;101874.28;;;24.46;100.00
36726;BME280;44936;52.086;5.150;2023-06-14T10:14:50;101870.72;;;24.45;100.00
36726;BME280;44936;52.086;5.150;2023-06-14T10:17:24;101846.50;;;24.48;100.00
36726;BME280;44936;52.086;5.150;2023-06-14T10:20:04;101821.41;;;24.49;100.00
36726;BME280;44936;52.086;5.150;2023-06-14T10:22:43;101871.06;;;24.60;100.00
36726;BME280;44936;52.086;5.150;2023-06-14T10:25:13;101872.66;;;24.65;100.00
36726;BME280;44936;52.086;5.150;2023-06-14T10:27:50;101868.78;;;24.72;100.00
36726;BME280;44936;52.086;5.150;2023-06-14T10:30:16;101834.72;;;24.74;100.00
36726;BME280;44936;52.086;5.150;2023-06-14T10:33:06;101838.00;;;24.81;100.00
36726;BME280;44936;52.086;5.150;2023-06-14T10:35:32;101839.53;;;24.88;100.00
36726;BME280;44936;52.086;5.150;2023-06-14T10:38:08;101829.72;;;24.87;100.00
36726;BME280;44936;52.086;5.150;2023-06-14T10:40:34;101829.78;;;24.85;100.00
36726;BME280;44936;52.086;5.150;2023-06-14T10:43:01;101849.31;;;24.89;100.00
36726;BME280;44936;52.086;5.150;2023-06-14T10:46:11;101809.06;;;24.89;100.00
36726;BME280;44936;52.086;5.150;2023-06-14T10:48:40;101819.56;;;24.95;100.00
36726;BME280;44936;52.086;5.150;2023-06-14T10:51:15;101802.50;;;24.96;100.00
36726;BME280;44936;52.086;5.150;2023-06-14T10:53:42;101763.50;;;24.88;100.00
36726;BME280;44936;52.086;5.150;2023-06-14T10:56:08;101820.00;;;25.06;100.00
36726;BME280;44936;52.086;5.150;2023-06-14T10:58:33;101733.41;;;25.01;100.00
36726;BME280;44936;52.086;5.150;2023-06-14T11:00:59;101830.63;;;25.09;100.00
36726;BME280;44936;52.086;5.150;2023-06-14T11:03:50;101764.19;;;25.14;100.00
36726;BME280;44936;52.086;5.150;2023-06-14T11:06:21;101784.72;;;25.16;100.00
36726;BME280;44936;52.086;5.150;2023-06-14T11:12:03;101787.22;;;25.20;100.00
36726;BME280;44936;52.086;5.150;2023-06-14T11:14:31;101815.88;;;25.20;100.00
36726;BME280;44936;52.086;5.150;2023-06-14T11:16:57;101807.28;;;25.32;100.00
36726;BME280;44936;52.086;5.150;2023-06-14T11:19:22;101801.84;;;25.33;100.00
36726;BME280;44936;52.086;5.150;2023-06-14T11:21:48;101805.47;;;25.32;100.00
36726;BME280;44936;52.086;5.150;2023-06-14T11:24:14;101790.13;;;25.36;100.00
36726;BME280;44936;52.086;5.150;2023-06-14T11:26:40;101808.50;;;25.45;100.00
36726;BME280;44936;52.086;5.150;2023-06-14T11:29:05;101768.63;;;25.36;100.00
36726;BME280;44936;52.086;5.150;2023-06-14T11:31:31;101769.34;;;25.39;100.00
36726;BME280;44936;52.086;5.150;2023-06-14T11:33:57;101771.56;;;25.50;100.00
36726;BME280;44936;52.086;5.150;2023-06-14T11:36:26;101758.91;;;25.52;100.00
36726;BME280;44936;52.086;5.150;2023-06-14T11:39:05;101763.38;;;25.53;100.00
36726;BME280;44936;52.086;5.150;2023-06-14T11:41:34;101756.03;;;25.57;100.00
36726;BME280;44936;52.086;5.150;2023-06-14T11:44:01;101790.56;;;25.66;100.00
36726;BME280;44936;52.086;5.150;2023-06-14T11:46:27;101744.88;;;25.66;100.00
36726;BME280;44936;52.086;5.150;2023-06-14T11:48:52;101801.00;;;25.74;100.00
36726;BME280;44936;52.086;5.150;2023-06-14T11:51:18;101724.69;;;25.57;100.00
36726;BME280;44936;52.086;5.150;2023-06-14T11:53:44;101748.59;;;25.63;100.00
36726;BME280;44936;52.086;5.150;2023-06-14T11:56:10;101767.88;;;25.73;100.00
36726;BME280;44936;52.086;5.150;2023-06-14T11:58:35;101752.16;;;25.64;100.00
36726;BME280;44936;52.086;5.150;2023-06-14T12:01:03;101786.63;;;25.75;100.00
36726;BME280;44936;52.086;5.150;2023-06-14T12:03:28;101776.66;;;25.77;100.00
36726;BME280;44936;52.086;5.150;2023-06-14T12:06:06;101777.69;;;25.74;100.00
36726;BME280;44936;52.086;5.150;2023-06-14T12:08:38;101773.09;;;25.76;100.00
36726;BME280;44936;52.086;5.150;2023-06-14T12:11:13;101770.41;;;25.76;100.00
36726;BME280;44936;52.086;5.150;2023-06-14T12:13:42;101726.47;;;25.77;100.00
36726;BME280;44936;52.086;5.150;2023-06-14T12:16:09;101743.91;;;25.87;100.00
36726;BME280;44936;52.086;5.150;2023-06-14T12:18:39;101780.25;;;25.96;100.00
36726;BME280;44936;52.086;5.150;2023-06-14T12:21:05;101756.13;;;25.94;100.00
36726;BME280;44936;52.086;5.150;2023-06-14T12:23:48;101674.44;;;25.80;100.00
36726;BME280;44936;52.086;5.150;2023-06-14T12:26:17;101700.97;;;25.86;100.00
36726;BME280;44936;52.086;5.150;2023-06-14T12:28:45;101742.59;;;25.96;100.00
36726;BME280;44936;52.086;5.150;2023-06-14T12:31:12;101764.97;;;25.96;100.00
36726;BME280;44936;52.086;5.150;2023-06-14T12:33:38;101732.59;;;26.00;100.00
36726;BME280;44936;52.086;5.150;2023-06-14T12:36:05;101741.38;;;26.03;100.00
36726;BME280;44936;52.086;5.150;2023-06-14T12:38:32;101744.81;;;26.07;100.00
36726;BME280;44936;52.086;5.150;2023-06-14T12:40:57;101755.41;;;26.10;100.00
36726;BME280;44936;52.086;5.150;2023-06-14T12:43:22;101699.03;;;26.08;100.00
36726;BME280;44936;52.086;5.150;2023-06-14T12:45:48;101712.25;;;26.13;100.00